Time;durP1;ratioP1;P1;durP2;ratioP2;P2;SDS_P1;SDS_P2;PMS_P1;PMS_P2;Temp;Humidity;BMP_temperature;BMP_pressure;BME280_temperature;BME280_humidity;BME280_pressure;Samples;Min_cycle;Max_cycle;Signal;HPM_P1;HPM_P2
2022/11/06 12:47:02;;;;;;;2.27;0.80;;;11.10;99.90;;;;;;4857106;29;20250;-70
2022/11/06 12:49:46;;;;;;;4.30;1.27;;;11.10;99.90;;;;;;4851289;29;20570;-70
2022/11/06 12:52:27;;;;;;;7.93;0.83;;;11.10;99.90;;;;;;4850952;29;20702;-70
2022/11/06 12:55:09;;;;;;;1.90;1.00;;;11.00;99.90;;;;;;4850336;29;20238;-70
2022/11/06 12:57:45;;;;;;;4.50;1.00;;;11.10;99.90;;;;;;4851256;29;20582;-67
2022/11/06 13:00:16;;;;;;;0.77;0.60;;;11.10;99.90;;;;;;4851515;29;20572;-69
2022/11/06 13:03:15;;;;;;;5.30;1.00;;;11.20;99.90;;;;;;4847937;29;20723;-69
2022/11/06 13:05:48;;;;;;;1.80;0.80;;;11.10;99.90;;;;;;4847778;29;20661;-70
2022/11/06 13:08:24;;;;;;;2.73;0.77;;;11.00;99.90;;;;;;4851045;29;20204;-70
2022/11/06 13:11:02;;;;;;;0.97;0.50;;;11.00;99.90;;;;;;4851023;29;20234;-70
2022/11/06 13:13:48;;;;;;;3.30;0.93;;;11.00;99.90;;;;;;4849581;29;20233;-69
2022/11/06 13:16:24;;;;;;;1.33;0.70;;;11.00;99.90;;;;;;4851414;29;20256;-69
2022/11/06 13:18:56;;;;;;;3.17;0.80;;;11.00;99.90;;;;;;4850425;29;20659;-69
2022/11/06 13:21:31;;;;;;;2.30;0.83;;;11.00;99.90;;;;;;4850184;29;20230;-69
2022/11/06 13:24:02;;;;;;;4.53;1.00;;;10.90;99.90;;;;;;4840846;29;20298;-69
2022/11/06 13:26:34;;;;;;;3.27;0.93;;;10.90;99.90;;;;;;4841973;29;20684;-69
2022/11/06 13:29:04;;;;;;;1.47;0.70;;;10.80;99.90;;;;;;4841632;29;20291;-69
2022/11/06 13:31:38;;;;;;;3.83;0.80;;;10.70;99.90;;;;;;4842355;29;20237;-69
2022/11/06 13:34:11;;;;;;;1.97;0.80;;;10.60;99.90;;;;;;4836894;29;20201;-69
2022/11/06 13:36:37;;;;;;;3.83;0.77;;;10.50;99.90;;;;;;4828655;29;20218;-69
2022/11/06 13:39:13;;;;;;;2.70;1.10;;;10.50;99.90;;;;;;4833165;29;20697;-69
2022/11/06 13:41:40;;;;;;;1.60;0.60;;;10.40;99.90;;;;;;4823267;29;20320;-69
2022/11/06 13:44:10;;;;;;;3.10;0.70;;;10.30;99.90;;;;;;4836832;29;20208;-69
2022/11/06 13:46:46;;;;;;;2.27;0.60;;;10.30;99.90;;;;;;4841116;29;20740;-69
2022/11/06 13:49:22;;;;;;;2.20;0.80;;;10.20;99.90;;;;;;4841034;29;20216;-69
2022/11/06 13:51:53;;;;;;;2.70;0.90;;;10.10;99.90;;;;;;4841143;29;20248;-69
2022/11/06 13:54:35;;;;;;;2.23;0.70;;;10.10;99.90;;;;;;4841131;29;20269;-69
2022/11/06 13:57:32;;;;;;;2.93;0.80;;;10.00;99.90;;;;;;4822336;29;20210;-69
2022/11/06 14:00:21;;;;;;;0.90;0.63;;;10.00;99.90;;;;;;4822764;29;20222;-69
2022/11/06 14:03:32;;;;;;;1.90;0.70;;;9.80;99.90;;;;;;4823249;29;20233;-70
2022/11/06 14:06:02;;;;;;;6.13;0.90;;;9.90;99.90;;;;;;4824671;29;20209;-70
2022/11/06 14:08:33;;;;;;;1.60;0.67;;;10.00;99.90;;;;;;4841393;29;20215;-69
2022/11/06 14:11:03;;;;;;;3.37;0.87;;;9.80;99.90;;;;;;4841371;29;20230;-69
2022/11/06 14:13:33;;;;;;;2.47;0.70;;;9.80;99.90;;;;;;4841570;29;20235;-70
2022/11/06 14:16:23;;;;;;;2.10;0.90;;;9.80;99.90;;;;;;4843711;29;20568;-70
2022/11/06 14:18:55;;;;;;;2.07;1.00;;;9.80;99.90;;;;;;4844409;29;20575;-70
2022/11/06 14:24:39;;;;;;;2.00;1.13;;;9.70;99.90;;;;;;5130366;27;20602;-68
2022/11/06 14:27:11;;;;;;;1.90;0.60;;;9.90;99.90;;;;;;5130405;27;20197;-69
2022/11/06 14:29:57;;;;;;;4.90;1.33;;;9.80;99.90;;;;;;5130862;28;20559;-69
2022/11/06 14:32:56;;;;;;;2.63;1.10;;;9.70;99.90;;;;;;5130324;28;20227;-69
2022/11/06 14:35:50;;;;;;;3.17;0.93;;;9.80;99.90;;;;;;5128767;28;20197;-68
2022/11/06 14:38:37;;;;;;;2.57;1.20;;;9.70;99.90;;;;;;5130436;27;20232;-69
2022/11/06 14:41:38;;;;;;;3.57;0.80;;;9.60;99.90;;;;;;5130948;27;20197;-69
2022/11/06 14:44:20;;;;;;;1.63;0.90;;;9.60;99.90;;;;;;5118247;27;20236;-69
2022/11/06 14:46:50;;;;;;;4.33;1.33;;;9.60;99.90;;;;;;5130947;27;20201;-69
2022/11/06 14:49:25;;;;;;;1.47;1.03;;;9.50;99.90;;;;;;5130852;27;20201;-69
2022/11/06 14:51:59;;;;;;;2.83;0.97;;;9.50;99.90;;;;;;5131036;27;20223;-69
2022/11/06 14:54:26;;;;;;;2.30;0.83;;;9.40;99.90;;;;;;5130942;27;20677;-69
2022/11/06 14:56:54;;;;;;;3.37;1.20;;;9.30;99.90;;;;;;5130863;27;20197;-69
2022/11/06 14:59:32;;;;;;;2.80;1.37;;;9.20;99.90;;;;;;5130992;27;20205;-68
2022/11/06 15:02:04;;;;;;;3.83;1.30;;;9.20;99.90;;;;;;5130392;27;20228;-69
2022/11/06 15:04:33;;;;;;;1.90;0.93;;;9.20;99.90;;;;;;5130624;27;20205;-68
2022/11/06 15:07:08;;;;;;;1.03;0.50;;;9.20;99.90;;;;;;5130810;27;20374;-68
2022/11/06 15:09:46;;;;;;;2.83;1.10;;;9.10;99.90;;;;;;5130474;27;20211;-69
2022/11/06 15:12:13;;;;;;;5.20;0.80;;;9.10;99.90;;;;;;5130126;27;20221;-68
2022/11/06 15:15:15;;;;;;;3.23;1.00;;;9.00;99.90;;;;;;5130016;27;20208;-68
2022/11/06 15:17:42;;;;;;;2.70;1.63;;;9.00;99.90;;;;;;5096554;27;20204;-68
2022/11/06 15:20:28;;;;;;;4.13;1.27;;;9.00;99.90;;;;;;5129926;27;20205;-68
2022/11/06 15:23:11;;;;;;;3.60;0.90;;;9.00;99.90;;;;;;5129755;27;20231;-69
2022/11/06 15:25:41;;;;;;;1.73;1.17;;;8.90;99.90;;;;;;5130011;27;20208;-68
2022/11/06 15:28:14;;;;;;;5.47;1.40;;;8.90;99.90;;;;;;5129921;27;20201;-69
2022/11/06 15:30:47;;;;;;;4.17;1.67;;;8.90;99.90;;;;;;5129861;27;20201;-69
2022/11/06 15:33:20;;;;;;;4.50;1.47;;;8.80;99.90;;;;;;5129487;27;20221;-68
2022/11/06 15:35:48;;;;;;;2.80;1.30;;;8.90;99.90;;;;;;5115994;27;20202;-68
2022/11/06 15:38:19;;;;;;;3.70;1.50;;;8.80;99.90;;;;;;5116321;28;20721;-68
2022/11/06 15:40:48;;;;;;;4.23;1.83;;;8.80;99.90;;;;;;5116311;28;20210;-69
2022/11/06 15:43:28;;;;;;;4.70;1.20;;;8.80;99.90;;;;;;5115973;28;20233;-68
2022/11/06 15:46:16;;;;;;;5.10;2.10;;;8.80;99.90;;;;;;5115824;28;20571;-68
2022/11/06 15:48:43;;;;;;;2.60;1.73;;;8.80;99.90;;;;;;5116260;28;20254;-69
2022/11/06 15:51:22;;;;;;;4.20;1.50;;;8.70;99.90;;;;;;5115461;28;20678;-69
2022/11/06 15:53:48;;;;;;;2.43;1.10;;;8.70;99.90;;;;;;5115944;28;20202;-69
2022/11/06 15:56:18;;;;;;;4.67;1.60;;;8.70;99.90;;;;;;5115985;28;20213;-68
2022/11/06 15:58:45;;;;;;;5.13;1.67;;;8.70;99.90;;;;;;5116053;28;20549;-69
2022/11/06 16:01:13;;;;;;;3.23;1.83;;;8.80;99.90;;;;;;5115796;28;20213;-69
2022/11/06 16:03:46;;;;;;;3.43;1.43;;;8.80;99.90;;;;;;5115850;28;20240;-69
2022/11/06 16:06:13;;;;;;;6.43;1.73;;;8.70;99.90;;;;;;5115639;28;20572;-69
2022/11/06 16:08:41;;;;;;;3.17;1.20;;;8.70;99.90;;;;;;5115784;28;20681;-69
2022/11/06 16:11:13;;;;;;;3.63;1.43;;;8.70;99.90;;;;;;5115722;28;20538;-69
2022/11/06 16:13:42;;;;;;;3.13;1.50;;;8.70;99.90;;;;;;5115517;28;20202;-69
2022/11/06 16:16:36;;;;;;;3.10;1.30;;;8.70;99.90;;;;;;5115614;28;20201;-69
2022/11/06 16:19:04;;;;;;;3.57;1.70;;;8.70;99.90;;;;;;5115284;28;20640;-68
2022/11/06 16:21:33;;;;;;;4.87;1.30;;;8.60;99.90;;;;;;5115223;28;20222;-68
2022/11/06 16:24:04;;;;;;;2.57;1.57;;;8.60;99.90;;;;;;5115408;28;20229;-69
2022/11/06 16:26:37;;;;;;;4.33;1.97;;;8.60;99.90;;;;;;5115539;28;20201;-68
2022/11/06 16:29:10;;;;;;;4.33;1.83;;;8.60;99.90;;;;;;5114745;27;20260;-69
2022/11/06 16:31:40;;;;;;;4.17;1.77;;;8.70;99.90;;;;;;5114713;28;20222;-69
2022/11/06 16:34:19;;;;;;;4.90;1.40;;;8.70;99.90;;;;;;5115620;28;20202;-69
2022/11/06 16:36:57;;;;;;;2.90;1.67;;;8.70;99.90;;;;;;5115276;28;20209;-69
2022/11/06 16:39:43;;;;;;;3.03;1.40;;;8.80;99.90;;;;;;5115100;28;20685;-69
2022/11/06 16:42:28;;;;;;;4.83;1.67;;;8.70;99.90;;;;;;5114691;28;20237;-69
2022/11/06 16:45:17;;;;;;;4.27;1.93;;;8.70;99.90;;;;;;5114087;28;20212;-68
2022/11/06 16:48:30;;;;;;;3.93;1.53;;;8.80;99.90;;;;;;5114096;28;20296;-69
2022/11/06 16:50:59;;;;;;;2.83;1.33;;;8.80;99.90;;;;;;5114597;28;20236;-69
2022/11/06 16:53:29;;;;;;;2.57;1.17;;;8.90;99.90;;;;;;5115007;28;20235;-70
2022/11/06 16:55:57;;;;;;;2.30;1.30;;;8.80;99.90;;;;;;5114813;28;20204;-68
2022/11/06 16:58:25;;;;;;;4.13;1.50;;;8.90;99.90;;;;;;5114769;28;20201;-68
2022/11/06 17:01:00;;;;;;;2.30;1.40;;;8.90;99.90;;;;;;5114523;28;20206;-68
2022/11/06 17:03:35;;;;;;;2.77;1.27;;;8.90;99.90;;;;;;5114555;28;20239;-68
2022/11/06 17:06:02;;;;;;;5.23;1.40;;;8.90;99.90;;;;;;5114764;28;20215;-69
2022/11/06 17:08:36;;;;;;;2.60;1.43;;;8.90;99.90;;;;;;5114733;28;20537;-69
2022/11/06 17:11:20;;;;;;;3.57;1.60;;;8.90;99.90;;;;;;5114496;28;20209;-69
2022/11/06 17:13:48;;;;;;;1.87;1.10;;;9.00;99.90;;;;;;5114445;28;20614;-67
2022/11/06 17:16:17;;;;;;;4.80;1.50;;;9.00;99.90;;;;;;5114421;28;20275;-69
2022/11/06 17:18:46;;;;;;;2.33;1.30;;;9.10;99.90;;;;;;5114612;28;20198;-70
2022/11/06 17:21:15;;;;;;;5.63;1.30;;;9.10;99.90;;;;;;5113998;28;20202;-68
2022/11/06 17:23:43;;;;;;;3.63;1.70;;;9.10;99.90;;;;;;5113879;28;20229;-68
2022/11/06 17:26:21;;;;;;;2.50;1.20;;;9.20;99.90;;;;;;5114307;28;20210;-68
2022/11/06 17:28:48;;;;;;;2.83;1.10;;;9.20;99.90;;;;;;5114043;28;20266;-68
2022/11/06 17:31:17;;;;;;;2.17;1.13;;;9.30;99.90;;;;;;5113849;28;20197;-68
2022/11/06 17:33:46;;;;;;;4.07;1.00;;;9.40;99.90;;;;;;5113608;28;20212;-67
2022/11/06 17:36:18;;;;;;;3.27;1.20;;;9.40;99.90;;;;;;5113838;27;20659;-68
2022/11/06 17:38:46;;;;;;;5.50;1.43;;;9.40;99.90;;;;;;5113592;28;20207;-68
2022/11/06 17:41:28;;;;;;;5.57;1.47;;;9.50;99.90;;;;;;5113785;28;20296;-68
2022/11/06 17:43:55;;;;;;;2.70;1.20;;;9.50;99.90;;;;;;5113727;28;20318;-67
2022/11/06 17:46:22;;;;;;;2.80;1.47;;;9.50;99.90;;;;;;5113539;28;20232;-67
2022/11/06 17:48:50;;;;;;;2.33;1.40;;;9.50;99.90;;;;;;5113380;28;20678;-67
2022/11/06 17:54:01;;;;;;;3.43;1.40;;;9.60;99.90;;;;;;5113719;28;20201;-66
2022/11/06 17:56:28;;;;;;;2.17;1.20;;;9.60;99.90;;;;;;5113721;28;20208;-67
2022/11/06 17:58:55;;;;;;;5.80;1.47;;;9.60;99.90;;;;;;5113353;28;20206;-67
2022/11/06 18:01:22;;;;;;;2.53;1.40;;;9.60;99.90;;;;;;5113047;28;20198;-67
2022/11/06 18:03:50;;;;;;;3.80;1.57;;;9.60;99.90;;;;;;5113811;28;20233;-67
2022/11/06 18:06:17;;;;;;;3.87;1.40;;;9.60;99.90;;;;;;5114116;28;20575;-67
2022/11/06 18:08:44;;;;;;;4.00;1.97;;;9.70;99.90;;;;;;5113553;28;20198;-68
2022/11/06 18:11:11;;;;;;;2.73;1.70;;;9.70;99.90;;;;;;5113490;28;20209;-67
2022/11/06 18:13:38;;;;;;;4.60;1.50;;;9.80;99.90;;;;;;5113517;28;20206;-68
2022/11/06 18:16:15;;;;;;;4.53;1.53;;;9.80;99.90;;;;;;5113689;28;20208;-67
2022/11/06 18:18:42;;;;;;;4.00;1.40;;;9.80;99.90;;;;;;5112991;28;20674;-67
2022/11/06 18:21:10;;;;;;;3.97;1.40;;;9.80;99.90;;;;;;5113374;28;20205;-67
2022/11/06 18:23:37;;;;;;;2.43;1.30;;;9.80;99.90;;;;;;5113281;28;20222;-67
2022/11/06 18:26:04;;;;;;;3.83;1.73;;;9.80;99.90;;;;;;5113552;28;20209;-68
2022/11/06 18:28:31;;;;;;;4.83;2.07;;;9.90;99.90;;;;;;5113471;28;20201;-67
2022/11/06 18:30:58;;;;;;;4.03;1.50;;;9.90;99.90;;;;;;5113321;28;20670;-67
2022/11/06 18:33:25;;;;;;;3.27;1.77;;;10.00;99.90;;;;;;5113746;28;20236;-67
2022/11/06 18:35:52;;;;;;;2.40;1.50;;;10.10;99.90;;;;;;5113390;28;20228;-67
2022/11/06 18:38:20;;;;;;;4.87;1.97;;;10.00;99.90;;;;;;5113534;28;20198;-68
2022/11/06 18:40:47;;;;;;;2.73;1.63;;;10.00;99.90;;;;;;5113283;28;20258;-67
2022/11/06 18:43:13;;;;;;;6.50;1.73;;;10.00;99.90;;;;;;5114038;28;20227;-68
2022/11/06 18:45:40;;;;;;;3.10;1.60;;;10.10;99.90;;;;;;5113452;28;20198;-67
2022/11/06 18:48:07;;;;;;;5.67;2.10;;;10.20;99.90;;;;;;5113133;28;20204;-68
2022/11/06 18:50:35;;;;;;;3.00;1.53;;;10.20;99.90;;;;;;5113217;28;20648;-67
2022/11/06 18:53:02;;;;;;;3.70;1.57;;;10.20;99.90;;;;;;5113093;28;20590;-68
2022/11/06 18:55:30;;;;;;;2.00;1.40;;;10.20;99.90;;;;;;5113410;28;20208;-70
2022/11/06 18:57:57;;;;;;;1.70;1.23;;;10.30;99.90;;;;;;5113249;28;20208;-67
2022/11/06 19:00:25;;;;;;;1.80;1.30;;;10.30;99.90;;;;;;5113075;28;20205;-68
2022/11/06 19:02:53;;;;;;;3.57;1.77;;;10.30;99.90;;;;;;5112998;28;20575;-68
2022/11/06 19:05:20;;;;;;;3.57;1.60;;;10.40;99.90;;;;;;5113053;28;20237;-67
2022/11/06 19:07:47;;;;;;;3.97;1.70;;;10.40;99.90;;;;;;5113021;28;20200;-67
2022/11/06 19:10:13;;;;;;;5.47;1.40;;;10.50;99.90;;;;;;5115641;28;20216;-68
2022/11/06 19:12:41;;;;;;;3.93;1.60;;;10.50;99.90;;;;;;5116757;27;20226;-68
2022/11/06 19:15:09;;;;;;;4.97;1.30;;;10.60;99.90;;;;;;5116807;28;20205;-68
2022/11/06 19:17:36;;;;;;;3.27;1.60;;;10.50;99.90;;;;;;5116894;28;20205;-67
2022/11/06 19:20:03;;;;;;;2.73;1.60;;;10.50;99.90;;;;;;5116824;28;20201;-69
2022/11/06 19:22:30;;;;;;;3.50;1.40;;;10.50;99.90;;;;;;5116676;28;20225;-69
2022/11/06 19:24:57;;;;;;;2.40;1.27;;;10.50;99.90;;;;;;5116748;28;20229;-70
2022/11/06 19:27:24;;;;;;;2.27;1.37;;;10.50;99.90;;;;;;5116821;28;20198;-70
2022/11/06 19:29:52;;;;;;;3.73;1.60;;;10.50;99.90;;;;;;5116767;28;20201;-69
2022/11/06 19:32:18;;;;;;;3.17;1.43;;;10.60;99.90;;;;;;5116345;28;20217;-70
2022/11/06 19:34:45;;;;;;;4.57;1.80;;;10.60;99.90;;;;;;5116477;28;20205;-70
2022/11/06 19:37:12;;;;;;;2.00;1.50;;;10.60;99.90;;;;;;5116442;28;20719;-70
2022/11/06 19:39:39;;;;;;;4.27;1.53;;;10.70;99.90;;;;;;5116355;28;20569;-69
2022/11/06 19:42:06;;;;;;;5.03;1.60;;;10.70;99.90;;;;;;5112328;28;20226;-69
2022/11/06 19:44:32;;;;;;;4.27;1.37;;;10.70;99.90;;;;;;5100788;27;20248;-69
2022/11/06 19:47:00;;;;;;;3.67;1.30;;;10.70;99.90;;;;;;5106446;28;20208;-69
2022/11/06 19:49:27;;;;;;;5.67;1.30;;;10.70;99.90;;;;;;5098956;28;20656;-68
2022/11/06 19:51:54;;;;;;;2.53;1.33;;;10.70;99.90;;;;;;5108655;28;20726;-68
2022/11/06 19:54:21;;;;;;;4.03;1.53;;;10.70;99.90;;;;;;5096758;28;20725;-69
2022/11/06 19:56:48;;;;;;;1.47;1.30;;;10.60;99.90;;;;;;5103036;28;20209;-69
2022/11/06 19:59:15;;;;;;;5.97;1.90;;;10.60;99.90;;;;;;5099959;28;20205;-69
2022/11/06 20:01:42;;;;;;;2.30;1.37;;;10.60;99.90;;;;;;5112841;28;20583;-69
2022/11/06 20:04:10;;;;;;;3.97;1.30;;;10.60;99.90;;;;;;5100675;28;20229;-69
2022/11/06 20:06:38;;;;;;;2.87;1.47;;;10.50;99.90;;;;;;5106525;28;20206;-69
2022/11/06 20:09:05;;;;;;;7.30;1.70;;;10.60;99.90;;;;;;5104535;28;20202;-69
2022/11/06 20:11:32;;;;;;;2.57;1.70;;;10.60;99.90;;;;;;5103901;28;20222;-69
2022/11/06 20:13:59;;;;;;;2.57;1.37;;;10.60;99.90;;;;;;5105112;28;20678;-69
2022/11/06 20:16:27;;;;;;;2.83;1.40;;;10.70;99.90;;;;;;5105295;28;20213;-69
2022/11/06 20:18:56;;;;;;;3.27;1.33;;;10.70;99.90;;;;;;5108900;28;20206;-69
2022/11/06 20:21:26;;;;;;;1.87;1.40;;;10.80;99.90;;;;;;5102593;28;20205;-69
2022/11/06 20:23:53;;;;;;;5.50;1.50;;;10.80;99.90;;;;;;5098860;28;20580;-69
2022/11/06 20:26:21;;;;;;;2.33;1.40;;;10.90;99.90;;;;;;5105229;28;20205;-69
2022/11/06 20:28:47;;;;;;;3.00;1.20;;;11.00;99.90;;;;;;5104918;28;20194;-69
2022/11/06 20:31:17;;;;;;;3.83;1.50;;;11.00;99.90;;;;;;5108275;28;20202;-69
2022/11/06 20:33:44;;;;;;;3.23;1.40;;;11.00;99.90;;;;;;5099779;28;20202;-69
2022/11/06 20:36:13;;;;;;;4.50;1.43;;;10.90;99.90;;;;;;5106118;28;20209;-69
2022/11/06 20:38:41;;;;;;;3.53;1.43;;;10.90;99.90;;;;;;5103088;28;20675;-69
2022/11/06 20:41:08;;;;;;;3.90;1.27;;;10.80;99.90;;;;;;5098899;28;20276;-69
2022/11/06 20:43:35;;;;;;;2.80;1.00;;;10.80;99.90;;;;;;5105556;28;20668;-69
2022/11/06 20:46:02;;;;;;;7.03;1.30;;;10.80;99.90;;;;;;5103129;28;20237;-70
2022/11/06 20:48:30;;;;;;;3.07;1.50;;;10.80;99.90;;;;;;5103726;28;20743;-69
2022/11/06 20:50:58;;;;;;;1.77;1.20;;;10.80;99.90;;;;;;5104058;28;20204;-69
2022/11/06 20:53:25;;;;;;;5.63;1.60;;;10.80;99.90;;;;;;5103398;28;20711;-69
2022/11/06 20:55:57;;;;;;;2.07;1.20;;;10.80;99.90;;;;;;5103953;28;20224;-69
2022/11/06 20:58:24;;;;;;;1.90;1.13;;;10.90;99.90;;;;;;5095424;28;20214;-69
2022/11/06 21:00:51;;;;;;;3.80;1.23;;;11.00;99.90;;;;;;5100803;28;20213;-69
2022/11/06 21:03:17;;;;;;;2.70;1.17;;;11.00;99.90;;;;;;5106183;28;20226;-69
2022/11/06 21:05:44;;;;;;;3.47;1.50;;;11.00;99.90;;;;;;5105077;28;20226;-69
2022/11/06 21:08:11;;;;;;;4.73;1.47;;;11.10;99.90;;;;;;5099947;28;20209;-69
2022/11/06 21:10:38;;;;;;;3.00;1.20;;;11.10;99.90;;;;;;5101212;28;20201;-68
2022/11/06 21:13:06;;;;;;;2.73;1.23;;;11.20;99.90;;;;;;5108514;28;20221;-69
2022/11/06 21:15:33;;;;;;;2.67;1.20;;;11.20;99.90;;;;;;5101995;28;20208;-69
2022/11/06 21:18:00;;;;;;;3.40;1.10;;;11.20;99.90;;;;;;5100455;28;20202;-69
2022/11/06 21:20:26;;;;;;;3.77;1.20;;;11.20;99.90;;;;;;5100947;28;20202;-68
2022/11/06 21:22:53;;;;;;;3.30;1.33;;;11.20;99.90;;;;;;5100384;28;20223;-69
2022/11/06 21:25:20;;;;;;;4.90;1.13;;;11.20;99.90;;;;;;5099052;28;20229;-69
2022/11/06 21:27:47;;;;;;;5.73;1.20;;;11.30;99.90;;;;;;5099470;28;20203;-69
2022/11/06 21:30:15;;;;;;;2.63;1.10;;;11.30;99.90;;;;;;5104011;28;20209;-69
2022/11/06 21:32:42;;;;;;;3.17;1.50;;;11.20;99.90;;;;;;5102120;28;20236;-69
2022/11/06 21:35:08;;;;;;;4.37;1.30;;;11.20;99.90;;;;;;5101865;28;20201;-69
2022/11/06 21:37:35;;;;;;;4.53;1.77;;;11.20;99.90;;;;;;5102058;28;20207;-69
2022/11/06 21:40:02;;;;;;;3.27;1.00;;;11.20;99.90;;;;;;5093144;28;20206;-69
2022/11/06 21:42:29;;;;;;;2.30;1.10;;;11.20;99.90;;;;;;5093046;28;20692;-69
2022/11/06 21:44:56;;;;;;;2.80;1.30;;;11.20;99.90;;;;;;5091707;28;20700;-69
2022/11/06 21:47:24;;;;;;;1.53;0.97;;;11.30;99.90;;;;;;5091696;28;20706;-69
2022/11/06 21:49:53;;;;;;;3.80;1.50;;;11.30;99.90;;;;;;5093715;28;20202;-69
2022/11/06 21:57:50;;;;;;;4.70;1.20;;;11.30;99.90;;;;;;5093079;28;20231;-69
2022/11/06 22:00:17;;;;;;;3.30;1.10;;;11.30;99.90;;;;;;5092716;28;20665;-69
2022/11/06 22:02:45;;;;;;;3.10;1.23;;;11.30;99.90;;;;;;5092730;28;20227;-69
2022/11/06 22:05:12;;;;;;;3.30;1.30;;;11.30;99.90;;;;;;5093222;28;20222;-69
2022/11/06 22:07:39;;;;;;;3.53;1.37;;;11.30;99.90;;;;;;5093088;28;20204;-67
2022/11/06 22:10:07;;;;;;;3.50;1.23;;;11.40;99.90;;;;;;5093067;28;20202;-67
2022/11/06 22:12:34;;;;;;;1.47;1.07;;;11.40;99.90;;;;;;5093049;28;20223;-68
2022/11/06 22:15:01;;;;;;;3.23;1.10;;;11.40;99.90;;;;;;5093293;28;20198;-68
2022/11/06 22:17:28;;;;;;;4.33;1.27;;;11.40;99.90;;;;;;5092584;28;20202;-67
2022/11/06 22:19:57;;;;;;;3.30;1.30;;;11.30;99.90;;;;;;5092772;28;20199;-68
2022/11/06 22:22:24;;;;;;;3.53;1.13;;;11.40;99.90;;;;;;5092792;28;20258;-67
2022/11/06 22:24:51;;;;;;;4.63;1.47;;;11.30;99.90;;;;;;5092222;28;20229;-67
2022/11/06 22:27:17;;;;;;;1.97;1.20;;;11.30;99.90;;;;;;5092540;28;20209;-67
